sensor_id;sensor_type;location;lat;lon;timestamp;P1;durP1;ratioP1;P2;durP2;ratioP2
15996;SDS011;8103;51.340;12.326;2023-02-28T00:01:26;3.92;;;2.63;;
15996;SDS011;8103;51.340;12.326;2023-02-28T00:03:54;5.73;;;2.53;;
15996;SDS011;8103;51.340;12.326;2023-02-28T00:06:22;2.58;;;1.95;;
15996;SDS011;8103;51.340;12.326;2023-02-28T00:08:52;3.55;;;2.08;;
15996;SDS011;8103;51.340;12.326;2023-02-28T00:11:19;2.63;;;2.10;;
15996;SDS011;8103;51.340;12.326;2023-02-28T00:13:46;2.20;;;1.80;;
15996;SDS011;8103;51.340;12.326;2023-02-28T00:16:23;4.72;;;2.50;;
15996;SDS011;8103;51.340;12.326;2023-02-28T00:18:50;2.17;;;1.80;;
15996;SDS011;8103;51.340;12.326;2023-02-28T00:21:17;4.33;;;2.70;;
15996;SDS011;8103;51.340;12.326;2023-02-28T00:23:46;2.85;;;2.40;;
15996;SDS011;8103;51.340;12.326;2023-02-28T00:26:13;2.75;;;1.90;;
15996;SDS011;8103;51.340;12.326;2023-02-28T00:28:44;3.85;;;2.30;;
15996;SDS011;8103;51.340;12.326;2023-02-28T00:31:11;4.35;;;2.38;;
15996;SDS011;8103;51.340;12.326;2023-02-28T00:33:38;3.30;;;2.28;;
15996;SDS011;8103;51.340;12.326;2023-02-28T00:36:06;3.67;;;2.42;;
15996;SDS011;8103;51.340;12.326;2023-02-28T00:38:36;2.40;;;1.95;;
15996;SDS011;8103;51.340;12.326;2023-02-28T00:41:06;8.07;;;2.75;;
15996;SDS011;8103;51.340;12.326;2023-02-28T00:43:34;3.47;;;2.55;;
15996;SDS011;8103;51.340;12.326;2023-02-28T00:46:05;5.25;;;2.63;;
15996;SDS011;8103;51.340;12.326;2023-02-28T00:48:33;7.25;;;2.38;;
15996;SDS011;8103;51.340;12.326;2023-02-28T00:51:00;3.58;;;1.65;;
15996;SDS011;8103;51.340;12.326;2023-02-28T00:53:27;3.58;;;2.17;;
15996;SDS011;8103;51.340;12.326;2023-02-28T00:55:56;2.38;;;1.98;;
15996;SDS011;8103;51.340;12.326;2023-02-28T00:58:23;4.10;;;2.72;;
15996;SDS011;8103;51.340;12.326;2023-02-28T01:00:51;4.35;;;2.72;;
15996;SDS011;8103;51.340;12.326;2023-02-28T01:03:19;2.75;;;2.15;;
15996;SDS011;8103;51.340;12.326;2023-02-28T01:05:48;5.45;;;3.22;;
15996;SDS011;8103;51.340;12.326;2023-02-28T01:08:15;3.97;;;2.60;;
15996;SDS011;8103;51.340;12.326;2023-02-28T01:10:42;6.15;;;3.00;;
15996;SDS011;8103;51.340;12.326;2023-02-28T01:13:09;4.45;;;2.78;;
15996;SDS011;8103;51.340;12.326;2023-02-28T01:15:38;3.70;;;2.00;;
15996;SDS011;8103;51.340;12.326;2023-02-28T01:18:19;3.42;;;2.55;;
15996;SDS011;8103;51.340;12.326;2023-02-28T01:20:48;5.05;;;2.63;;
15996;SDS011;8103;51.340;12.326;2023-02-28T01:23:16;4.43;;;2.75;;
15996;SDS011;8103;51.340;12.326;2023-02-28T01:25:43;3.95;;;2.53;;
15996;SDS011;8103;51.340;12.326;2023-02-28T01:28:10;3.03;;;2.42;;
15996;SDS011;8103;51.340;12.326;2023-02-28T01:30:36;4.18;;;2.40;;
15996;SDS011;8103;51.340;12.326;2023-02-28T01:33:03;4.70;;;2.95;;
15996;SDS011;8103;51.340;12.326;2023-02-28T01:35:34;4.78;;;2.65;;
15996;SDS011;8103;51.340;12.326;2023-02-28T01:38:03;6.68;;;3.50;;
15996;SDS011;8103;51.340;12.326;2023-02-28T01:40:46;3.15;;;2.40;;
15996;SDS011;8103;51.340;12.326;2023-02-28T01:43:18;3.65;;;2.53;;
15996;SDS011;8103;51.340;12.326;2023-02-28T01:45:50;4.20;;;2.08;;
15996;SDS011;8103;51.340;12.326;2023-02-28T01:48:18;5.90;;;3.38;;
15996;SDS011;8103;51.340;12.326;2023-02-28T01:50:53;3.72;;;2.72;;
15996;SDS011;8103;51.340;12.326;2023-02-28T01:53:29;3.92;;;2.88;;
15996;SDS011;8103;51.340;12.326;2023-02-28T01:56:03;6.20;;;2.85;;
15996;SDS011;8103;51.340;12.326;2023-02-28T01:58:34;2.72;;;2.42;;
15996;SDS011;8103;51.340;12.326;2023-02-28T02:01:03;4.55;;;2.90;;
15996;SDS011;8103;51.340;12.326;2023-02-28T02:03:30;3.22;;;2.22;;
15996;SDS011;8103;51.340;12.326;2023-02-28T02:05:57;3.00;;;2.10;;
15996;SDS011;8103;51.340;12.326;2023-02-28T02:08:25;6.20;;;2.78;;
15996;SDS011;8103;51.340;12.326;2023-02-28T02:10:56;3.67;;;2.35;;
15996;SDS011;8103;51.340;12.326;2023-02-28T02:19:11;3.22;;;2.47;;
15996;SDS011;8103;51.340;12.326;2023-02-28T02:38:02;2.72;;;2.20;;
15996;SDS011;8103;51.340;12.326;2023-02-28T02:41:08;3.00;;;2.25;;
15996;SDS011;8103;51.340;12.326;2023-02-28T02:44:04;4.70;;;2.22;;
15996;SDS011;8103;51.340;12.326;2023-02-28T02:46:42;3.97;;;2.50;;
15996;SDS011;8103;51.340;12.326;2023-02-28T02:49:22;3.55;;;2.20;;
15996;SDS011;8103;51.340;12.326;2023-02-28T02:51:57;3.63;;;2.38;;
15996;SDS011;8103;51.340;12.326;2023-02-28T02:54:33;3.58;;;2.53;;
15996;SDS011;8103;51.340;12.326;2023-02-28T02:57:08;4.30;;;2.92;;
15996;SDS011;8103;51.340;12.326;2023-02-28T02:59:41;4.72;;;3.08;;
15996;SDS011;8103;51.340;12.326;2023-02-28T03:02:11;3.67;;;2.88;;
15996;SDS011;8103;51.340;12.326;2023-02-28T03:04:51;5.15;;;2.95;;
15996;SDS011;8103;51.340;12.326;2023-02-28T03:07:26;4.95;;;2.97;;
15996;SDS011;8103;51.340;12.326;2023-02-28T03:09:54;5.75;;;3.17;;
15996;SDS011;8103;51.340;12.326;2023-02-28T03:12:24;3.67;;;2.78;;
15996;SDS011;8103;51.340;12.326;2023-02-28T03:15:23;6.57;;;3.28;;
15996;SDS011;8103;51.340;12.326;2023-02-28T03:18:05;6.15;;;3.05;;
15996;SDS011;8103;51.340;12.326;2023-02-28T03:21:24;3.28;;;2.70;;
15996;SDS011;8103;51.340;12.326;2023-02-28T03:24:06;5.25;;;2.50;;
15996;SDS011;8103;51.340;12.326;2023-02-28T03:26:49;2.90;;;2.40;;
15996;SDS011;8103;51.340;12.326;2023-02-28T03:35:39;3.72;;;2.70;;
15996;SDS011;8103;51.340;12.326;2023-02-28T03:38:16;2.27;;;2.00;;
15996;SDS011;8103;51.340;12.326;2023-02-28T03:41:30;4.35;;;2.33;;
15996;SDS011;8103;51.340;12.326;2023-02-28T03:44:04;2.93;;;2.20;;
15996;SDS011;8103;51.340;12.326;2023-02-28T03:46:44;3.37;;;2.40;;
15996;SDS011;8103;51.340;12.326;2023-02-28T03:49:25;3.78;;;3.08;;
15996;SDS011;8103;51.340;12.326;2023-02-28T03:52:00;4.15;;;2.60;;
15996;SDS011;8103;51.340;12.326;2023-02-28T03:54:33;3.47;;;2.53;;
15996;SDS011;8103;51.340;12.326;2023-02-28T04:00:45;5.13;;;2.28;;
15996;SDS011;8103;51.340;12.326;2023-02-28T04:03:36;4.40;;;2.50;;
15996;SDS011;8103;51.340;12.326;2023-02-28T04:06:12;3.00;;;2.40;;
15996;SDS011;8103;51.340;12.326;2023-02-28T04:08:47;5.17;;;2.53;;
15996;SDS011;8103;51.340;12.326;2023-02-28T04:13:46;5.40;;;2.70;;
15996;SDS011;8103;51.340;12.326;2023-02-28T04:16:14;3.97;;;2.42;;
15996;SDS011;8103;51.340;12.326;2023-02-28T04:18:58;4.40;;;2.53;;
15996;SDS011;8103;51.340;12.326;2023-02-28T04:21:29;4.03;;;2.55;;
15996;SDS011;8103;51.340;12.326;2023-02-28T04:23:59;3.33;;;2.45;;
15996;SDS011;8103;51.340;12.326;2023-02-28T04:26:30;6.78;;;3.17;;
15996;SDS011;8103;51.340;12.326;2023-02-28T04:33:09;7.53;;;3.40;;
15996;SDS011;8103;51.340;12.326;2023-02-28T04:35:36;4.63;;;2.75;;
15996;SDS011;8103;51.340;12.326;2023-02-28T04:38:02;5.13;;;3.22;;
15996;SDS011;8103;51.340;12.326;2023-02-28T04:40:29;3.95;;;2.75;;
15996;SDS011;8103;51.340;12.326;2023-02-28T04:42:56;7.18;;;3.35;;
15996;SDS011;8103;51.340;12.326;2023-02-28T04:45:23;5.22;;;3.15;;
15996;SDS011;8103;51.340;12.326;2023-02-28T04:47:50;4.25;;;2.90;;
15996;SDS011;8103;51.340;12.326;2023-02-28T04:50:16;5.22;;;2.95;;
15996;SDS011;8103;51.340;12.326;2023-02-28T04:52:43;6.00;;;4.25;;
15996;SDS011;8103;51.340;12.326;2023-02-28T04:55:10;6.55;;;4.03;;
15996;SDS011;8103;51.340;12.326;2023-02-28T04:57:37;5.63;;;3.70;;
15996;SDS011;8103;51.340;12.326;2023-02-28T05:00:04;6.03;;;4.25;;
15996;SDS011;8103;51.340;12.326;2023-02-28T05:02:34;8.00;;;4.00;;
15996;SDS011;8103;51.340;12.326;2023-02-28T05:05:01;10.45;;;5.10;;
15996;SDS011;8103;51.340;12.326;2023-02-28T05:07:28;8.80;;;4.15;;
15996;SDS011;8103;51.340;12.326;2023-02-28T05:09:55;5.77;;;3.37;;
15996;SDS011;8103;51.340;12.326;2023-02-28T05:12:22;7.13;;;3.40;;
15996;SDS011;8103;51.340;12.326;2023-02-28T05:14:48;3.85;;;2.72;;
15996;SDS011;8103;51.340;12.326;2023-02-28T05:17:15;7.00;;;3.47;;
15996;SDS011;8103;51.340;12.326;2023-02-28T05:19:42;7.07;;;3.35;;
15996;SDS011;8103;51.340;12.326;2023-02-28T05:22:13;6.80;;;3.35;;
15996;SDS011;8103;51.340;12.326;2023-02-28T05:24:42;6.03;;;3.13;;
15996;SDS011;8103;51.340;12.326;2023-02-28T05:27:10;7.57;;;3.95;;
15996;SDS011;8103;51.340;12.326;2023-02-28T05:29:36;10.43;;;5.45;;
15996;SDS011;8103;51.340;12.326;2023-02-28T05:32:09;28.55;;;13.07;;
15996;SDS011;8103;51.340;12.326;2023-02-28T05:34:37;19.60;;;11.20;;
15996;SDS011;8103;51.340;12.326;2023-02-28T05:37:05;23.70;;;10.53;;
15996;SDS011;8103;51.340;12.326;2023-02-28T05:39:37;14.05;;;7.53;;
15996;SDS011;8103;51.340;12.326;2023-02-28T05:42:04;11.20;;;5.65;;
15996;SDS011;8103;51.340;12.326;2023-02-28T05:44:32;11.98;;;5.63;;
15996;SDS011;8103;51.340;12.326;2023-02-28T05:46:59;6.57;;;4.22;;
15996;SDS011;8103;51.340;12.326;2023-02-28T05:49:26;6.05;;;4.05;;
15996;SDS011;8103;51.340;12.326;2023-02-28T05:51:53;9.00;;;4.68;;
15996;SDS011;8103;51.340;12.326;2023-02-28T05:54:20;5.07;;;3.63;;
15996;SDS011;8103;51.340;12.326;2023-02-28T05:56:47;4.93;;;3.05;;
15996;SDS011;8103;51.340;12.326;2023-02-28T05:59:14;6.60;;;3.47;;
15996;SDS011;8103;51.340;12.326;2023-02-28T06:01:44;4.65;;;3.30;;
15996;SDS011;8103;51.340;12.326;2023-02-28T06:04:15;4.97;;;3.53;;
15996;SDS011;8103;51.340;12.326;2023-02-28T06:06:56;5.03;;;3.03;;
15996;SDS011;8103;51.340;12.326;2023-02-28T06:09:24;8.23;;;3.70;;
15996;SDS011;8103;51.340;12.326;2023-02-28T06:11:52;7.00;;;4.38;;
15996;SDS011;8103;51.340;12.326;2023-02-28T06:14:19;8.55;;;3.30;;
15996;SDS011;8103;51.340;12.326;2023-02-28T06:16:47;6.33;;;2.80;;
15996;SDS011;8103;51.340;12.326;2023-02-28T06:19:14;5.95;;;3.05;;
15996;SDS011;8103;51.340;12.326;2023-02-28T06:21:41;3.70;;;2.60;;
15996;SDS011;8103;51.340;12.326;2023-02-28T06:24:10;5.35;;;3.25;;
15996;SDS011;8103;51.340;12.326;2023-02-28T06:26:37;3.70;;;2.65;;
15996;SDS011;8103;51.340;12.326;2023-02-28T06:29:04;3.75;;;3.08;;
15996;SDS011;8103;51.340;12.326;2023-02-28T06:31:31;12.27;;;6.17;;
15996;SDS011;8103;51.340;12.326;2023-02-28T06:34:00;7.57;;;4.22;;
15996;SDS011;8103;51.340;12.326;2023-02-28T06:36:31;4.47;;;3.10;;
15996;SDS011;8103;51.340;12.326;2023-02-28T06:38:59;9.73;;;3.53;;
15996;SDS011;8103;51.340;12.326;2023-02-28T06:41:26;5.00;;;3.20;;
15996;SDS011;8103;51.340;12.326;2023-02-28T06:43:54;5.68;;;3.40;;
15996;SDS011;8103;51.340;12.326;2023-02-28T06:46:21;6.55;;;3.65;;
15996;SDS011;8103;51.340;12.326;2023-02-28T06:48:49;7.15;;;3.55;;
15996;SDS011;8103;51.340;12.326;2023-02-28T06:51:17;5.68;;;3.60;;
15996;SDS011;8103;51.340;12.326;2023-02-28T06:53:50;7.10;;;3.47;;
15996;SDS011;8103;51.340;12.326;2023-02-28T06:56:17;5.47;;;3.88;;
15996;SDS011;8103;51.340;12.326;2023-02-28T06:58:47;4.35;;;3.67;;
15996;SDS011;8103;51.340;12.326;2023-02-28T07:01:16;6.10;;;4.22;;
15996;SDS011;8103;51.340;12.326;2023-02-28T07:03:43;5.53;;;3.87;;
15996;SDS011;8103;51.340;12.326;2023-02-28T07:06:11;5.85;;;3.38;;
15996;SDS011;8103;51.340;12.326;2023-02-28T07:08:38;7.27;;;4.10;;
15996;SDS011;8103;51.340;12.326;2023-02-28T07:11:07;4.38;;;3.38;;
15996;SDS011;8103;51.340;12.326;2023-02-28T07:13:34;13.95;;;4.15;;
15996;SDS011;8103;51.340;12.326;2023-02-28T07:16:03;10.50;;;4.22;;
15996;SDS011;8103;51.340;12.326;2023-02-28T07:18:34;12.88;;;4.20;;
15996;SDS011;8103;51.340;12.326;2023-02-28T07:21:02;6.32;;;3.70;;
15996;SDS011;8103;51.340;12.326;2023-02-28T07:23:35;8.93;;;3.83;;
15996;SDS011;8103;51.340;12.326;2023-02-28T07:26:04;7.18;;;3.47;;
15996;SDS011;8103;51.340;12.326;2023-02-28T07:28:32;7.68;;;4.10;;
15996;SDS011;8103;51.340;12.326;2023-02-28T07:31:03;6.13;;;4.15;;
15996;SDS011;8103;51.340;12.326;2023-02-28T07:33:32;5.35;;;3.58;;
15996;SDS011;8103;51.340;12.326;2023-02-28T07:36:04;6.93;;;3.13;;
15996;SDS011;8103;51.340;12.326;2023-02-28T07:38:34;8.77;;;4.25;;
15996;SDS011;8103;51.340;12.326;2023-02-28T07:41:03;9.70;;;4.10;;
15996;SDS011;8103;51.340;12.326;2023-02-28T07:43:31;9.00;;;3.45;;
15996;SDS011;8103;51.340;12.326;2023-02-28T07:46:07;8.82;;;4.82;;
15996;SDS011;8103;51.340;12.326;2023-02-28T07:48:37;6.50;;;3.72;;
15996;SDS011;8103;51.340;12.326;2023-02-28T07:51:04;7.55;;;3.97;;
15996;SDS011;8103;51.340;12.326;2023-02-28T07:53:31;4.82;;;3.25;;
15996;SDS011;8103;51.340;12.326;2023-02-28T07:55:59;6.53;;;3.85;;
15996;SDS011;8103;51.340;12.326;2023-02-28T07:58:29;8.27;;;4.60;;
15996;SDS011;8103;51.340;12.326;2023-02-28T08:00:57;4.53;;;3.47;;
15996;SDS011;8103;51.340;12.326;2023-02-28T08:03:31;5.22;;;3.40;;
15996;SDS011;8103;51.340;12.326;2023-02-28T08:05:58;6.93;;;3.55;;
15996;SDS011;8103;51.340;12.326;2023-02-28T08:08:25;5.85;;;3.65;;
15996;SDS011;8103;51.340;12.326;2023-02-28T08:10:58;8.60;;;4.20;;
15996;SDS011;8103;51.340;12.326;2023-02-28T08:13:29;6.95;;;4.32;;
15996;SDS011;8103;51.340;12.326;2023-02-28T08:15:57;5.22;;;4.00;;
15996;SDS011;8103;51.340;12.326;2023-02-28T08:18:24;8.13;;;3.60;;
15996;SDS011;8103;51.340;12.326;2023-02-28T08:20:51;5.55;;;3.20;;
15996;SDS011;8103;51.340;12.326;2023-02-28T08:23:18;8.95;;;3.95;;
15996;SDS011;8103;51.340;12.326;2023-02-28T08:25:52;6.35;;;3.47;;
15996;SDS011;8103;51.340;12.326;2023-02-28T08:28:20;8.23;;;3.55;;
15996;SDS011;8103;51.340;12.326;2023-02-28T08:30:51;7.20;;;3.38;;
15996;SDS011;8103;51.340;12.326;2023-02-28T08:33:18;7.35;;;3.70;;
15996;SDS011;8103;51.340;12.326;2023-02-28T08:35:45;7.15;;;2.95;;
15996;SDS011;8103;51.340;12.326;2023-02-28T08:38:12;5.43;;;3.00;;
15996;SDS011;8103;51.340;12.326;2023-02-28T08:40:39;5.78;;;3.22;;
15996;SDS011;8103;51.340;12.326;2023-02-28T08:43:06;6.45;;;3.13;;
15996;SDS011;8103;51.340;12.326;2023-02-28T08:45:33;4.68;;;2.67;;
15996;SDS011;8103;51.340;12.326;2023-02-28T08:48:00;5.57;;;2.95;;
15996;SDS011;8103;51.340;12.326;2023-02-28T08:50:27;5.53;;;2.70;;
15996;SDS011;8103;51.340;12.326;2023-02-28T08:52:54;3.03;;;2.17;;
15996;SDS011;8103;51.340;12.326;2023-02-28T08:55:24;4.25;;;2.80;;
15996;SDS011;8103;51.340;12.326;2023-02-28T08:57:51;7.35;;;3.97;;
15996;SDS011;8103;51.340;12.326;2023-02-28T09:00:21;6.93;;;3.50;;
15996;SDS011;8103;51.340;12.326;2023-02-28T09:02:49;3.38;;;2.25;;
15996;SDS011;8103;51.340;12.326;2023-02-28T09:05:16;5.07;;;2.70;;
15996;SDS011;8103;51.340;12.326;2023-02-28T09:07:42;3.95;;;2.70;;
15996;SDS011;8103;51.340;12.326;2023-02-28T09:10:09;4.13;;;2.65;;
15996;SDS011;8103;51.340;12.326;2023-02-28T09:16:43;3.47;;;2.22;;
15996;SDS011;8103;51.340;12.326;2023-02-28T09:19:11;5.63;;;3.30;;
15996;SDS011;8103;51.340;12.326;2023-02-28T09:21:38;6.28;;;3.47;;
15996;SDS011;8103;51.340;12.326;2023-02-28T09:24:06;3.20;;;2.03;;
15996;SDS011;8103;51.340;12.326;2023-02-28T09:26:33;5.00;;;2.80;;
15996;SDS011;8103;51.340;12.326;2023-02-28T09:29:07;3.95;;;2.80;;
15996;SDS011;8103;51.340;12.326;2023-02-28T09:31:33;7.47;;;2.97;;
15996;SDS011;8103;51.340;12.326;2023-02-28T09:34:00;4.00;;;2.65;;
15996;SDS011;8103;51.340;12.326;2023-02-28T09:36:27;7.95;;;2.80;;
15996;SDS011;8103;51.340;12.326;2023-02-28T09:39:09;4.15;;;2.92;;
15996;SDS011;8103;51.340;12.326;2023-02-28T09:41:46;3.20;;;2.38;;
15996;SDS011;8103;51.340;12.326;2023-02-28T09:47:27;5.80;;;3.30;;
15996;SDS011;8103;51.340;12.326;2023-02-28T09:53:28;5.18;;;2.42;;
15996;SDS011;8103;51.340;12.326;2023-02-28T09:56:07;4.60;;;2.60;;
15996;SDS011;8103;51.340;12.326;2023-02-28T09:58:45;4.55;;;2.63;;
15996;SDS011;8103;51.340;12.326;2023-02-28T10:07:33;6.25;;;3.50;;
15996;SDS011;8103;51.340;12.326;2023-02-28T10:10:29;8.30;;;3.08;;
15996;SDS011;8103;51.340;12.326;2023-02-28T10:13:12;4.40;;;2.72;;
15996;SDS011;8103;51.340;12.326;2023-02-28T10:15:58;3.70;;;2.75;;
15996;SDS011;8103;51.340;12.326;2023-02-28T10:18:46;4.50;;;2.67;;
15996;SDS011;8103;51.340;12.326;2023-02-28T10:21:46;4.78;;;2.65;;
15996;SDS011;8103;51.340;12.326;2023-02-28T10:24:28;3.22;;;2.42;;
15996;SDS011;8103;51.340;12.326;2023-02-28T10:29:46;6.93;;;2.95;;
15996;SDS011;8103;51.340;12.326;2023-02-28T10:32:19;4.47;;;3.10;;
15996;SDS011;8103;51.340;12.326;2023-02-28T10:35:00;5.20;;;3.40;;
15996;SDS011;8103;51.340;12.326;2023-02-28T10:37:54;12.68;;;3.47;;
15996;SDS011;8103;51.340;12.326;2023-02-28T10:45:23;48.47;;;6.70;;
15996;SDS011;8103;51.340;12.326;2023-02-28T10:50:43;4.93;;;3.47;;
15996;SDS011;8103;51.340;12.326;2023-02-28T10:56:02;6.30;;;3.38;;
15996;SDS011;8103;51.340;12.326;2023-02-28T11:03:57;8.50;;;3.47;;
15996;SDS011;8103;51.340;12.326;2023-02-28T11:06:25;5.53;;;3.10;;
15996;SDS011;8103;51.340;12.326;2023-02-28T11:08:59;8.98;;;4.03;;
15996;SDS011;8103;51.340;12.326;2023-02-28T11:11:45;5.90;;;4.40;;
15996;SDS011;8103;51.340;12.326;2023-02-28T11:14:17;4.93;;;3.85;;
15996;SDS011;8103;51.340;12.326;2023-02-28T11:16:52;3.58;;;3.28;;
15996;SDS011;8103;51.340;12.326;2023-02-28T11:19:25;5.55;;;3.65;;
15996;SDS011;8103;51.340;12.326;2023-02-28T11:22:03;5.28;;;3.60;;
15996;SDS011;8103;51.340;12.326;2023-02-28T11:24:42;7.47;;;3.45;;
15996;SDS011;8103;51.340;12.326;2023-02-28T11:27:48;3.60;;;3.00;;
15996;SDS011;8103;51.340;12.326;2023-02-28T11:30:23;3.88;;;3.20;;
15996;SDS011;8103;51.340;12.326;2023-02-28T11:32:52;8.98;;;3.72;;
15996;SDS011;8103;51.340;12.326;2023-02-28T11:38:25;4.25;;;2.50;;
15996;SDS011;8103;51.340;12.326;2023-02-28T11:46:52;5.95;;;3.58;;
15996;SDS011;8103;51.340;12.326;2023-02-28T11:49:44;3.58;;;3.28;;
15996;SDS011;8103;51.340;12.326;2023-02-28T11:52:57;5.80;;;3.38;;
15996;SDS011;8103;51.340;12.326;2023-02-28T11:55:32;4.97;;;3.90;;
15996;SDS011;8103;51.340;12.326;2023-02-28T12:01:20;6.03;;;3.65;;
15996;SDS011;8103;51.340;12.326;2023-02-28T12:07:18;4.57;;;3.58;;
15996;SDS011;8103;51.340;12.326;2023-02-28T12:10:03;4.32;;;3.40;;
15996;SDS011;8103;51.340;12.326;2023-02-28T12:12:53;4.53;;;3.65;;
15996;SDS011;8103;51.340;12.326;2023-02-28T12:21:25;4.82;;;3.92;;
15996;SDS011;8103;51.340;12.326;2023-02-28T12:27:01;4.68;;;4.00;;
15996;SDS011;8103;51.340;12.326;2023-02-28T12:29:52;5.03;;;4.00;;
15996;SDS011;8103;51.340;12.326;2023-02-28T12:32:29;8.10;;;4.40;;
15996;SDS011;8103;51.340;12.326;2023-02-28T12:37:40;4.38;;;3.97;;
15996;SDS011;8103;51.340;12.326;2023-02-28T12:40:21;4.50;;;4.10;;
15996;SDS011;8103;51.340;12.326;2023-02-28T12:42:58;6.97;;;4.10;;
15996;SDS011;8103;51.340;12.326;2023-02-28T12:48:13;5.03;;;4.18;;
15996;SDS011;8103;51.340;12.326;2023-02-28T12:50:47;6.72;;;4.18;;
15996;SDS011;8103;51.340;12.326;2023-02-28T12:53:21;4.65;;;4.18;;
15996;SDS011;8103;51.340;12.326;2023-02-28T12:56:48;7.47;;;4.32;;
15996;SDS011;8103;51.340;12.326;2023-02-28T12:59:37;15.25;;;10.00;;
15996;SDS011;8103;51.340;12.326;2023-02-28T13:11:29;7.25;;;4.82;;
15996;SDS011;8103;51.340;12.326;2023-02-28T13:14:05;5.43;;;4.32;;
15996;SDS011;8103;51.340;12.326;2023-02-28T13:16:54;11.23;;;4.65;;
15996;SDS011;8103;51.340;12.326;2023-02-28T13:28:00;5.70;;;4.53;;
15996;SDS011;8103;51.340;12.326;2023-02-28T13:33:29;8.90;;;5.43;;
15996;SDS011;8103;51.340;12.326;2023-02-28T13:38:44;5.15;;;4.65;;
15996;SDS011;8103;51.340;12.326;2023-02-28T13:51:52;5.95;;;4.68;;
15996;SDS011;8103;51.340;12.326;2023-02-28T13:58:46;17.33;;;10.38;;
15996;SDS011;8103;51.340;12.326;2023-02-28T14:07:08;8.48;;;4.57;;
15996;SDS011;8103;51.340;12.326;2023-02-28T14:09:51;4.90;;;3.97;;
15996;SDS011;8103;51.340;12.326;2023-02-28T14:18:03;8.02;;;5.15;;
15996;SDS011;8103;51.340;12.326;2023-02-28T14:20:42;24.08;;;18.38;;
15996;SDS011;8103;51.340;12.326;2023-02-28T14:26:31;6.50;;;4.70;;
15996;SDS011;8103;51.340;12.326;2023-02-28T14:38:17;5.13;;;4.60;;
15996;SDS011;8103;51.340;12.326;2023-02-28T14:44:56;4.90;;;4.40;;
15996;SDS011;8103;51.340;12.326;2023-02-28T14:51:30;9.25;;;4.47;;
15996;SDS011;8103;51.340;12.326;2023-02-28T14:53:57;5.78;;;5.20;;
15996;SDS011;8103;51.340;12.326;2023-02-28T14:56:38;8.55;;;5.50;;
15996;SDS011;8103;51.340;12.326;2023-02-28T15:03:19;11.95;;;6.18;;
15996;SDS011;8103;51.340;12.326;2023-02-28T15:08:44;8.15;;;5.25;;
15996;SDS011;8103;51.340;12.326;2023-02-28T15:11:13;7.55;;;5.32;;
15996;SDS011;8103;51.340;12.326;2023-02-28T15:17:51;10.43;;;6.13;;
15996;SDS011;8103;51.340;12.326;2023-02-28T15:20:27;9.13;;;5.68;;
15996;SDS011;8103;51.340;12.326;2023-02-28T15:22:55;8.00;;;5.68;;
15996;SDS011;8103;51.340;12.326;2023-02-28T15:25:24;7.57;;;5.07;;
15996;SDS011;8103;51.340;12.326;2023-02-28T15:27:53;9.45;;;6.53;;
15996;SDS011;8103;51.340;12.326;2023-02-28T15:30:30;11.05;;;5.57;;
15996;SDS011;8103;51.340;12.326;2023-02-28T15:35:38;9.68;;;5.68;;
15996;SDS011;8103;51.340;12.326;2023-02-28T15:41:21;10.48;;;6.00;;
15996;SDS011;8103;51.340;12.326;2023-02-28T15:47:59;9.00;;;5.70;;
15996;SDS011;8103;51.340;12.326;2023-02-28T15:50:39;7.95;;;5.60;;
15996;SDS011;8103;51.340;12.326;2023-02-28T15:53:11;9.32;;;6.03;;
15996;SDS011;8103;51.340;12.326;2023-02-28T15:55:44;7.65;;;5.28;;
15996;SDS011;8103;51.340;12.326;2023-02-28T15:58:12;8.65;;;6.53;;
15996;SDS011;8103;51.340;12.326;2023-02-28T16:00:59;9.55;;;6.13;;
15996;SDS011;8103;51.340;12.326;2023-02-28T16:03:38;9.00;;;5.97;;
15996;SDS011;8103;51.340;12.326;2023-02-28T16:09:10;9.35;;;6.38;;
15996;SDS011;8103;51.340;12.326;2023-02-28T16:11:44;7.72;;;5.97;;
15996;SDS011;8103;51.340;12.326;2023-02-28T16:14:19;10.80;;;7.22;;
15996;SDS011;8103;51.340;12.326;2023-02-28T16:16:51;6.18;;;4.88;;
15996;SDS011;8103;51.340;12.326;2023-02-28T16:19:28;11.35;;;6.07;;
15996;SDS011;8103;51.340;12.326;2023-02-28T16:21:55;10.32;;;6.03;;
15996;SDS011;8103;51.340;12.326;2023-02-28T16:24:22;12.68;;;7.20;;
15996;SDS011;8103;51.340;12.326;2023-02-28T16:26:50;12.40;;;6.18;;
15996;SDS011;8103;51.340;12.326;2023-02-28T16:29:23;6.80;;;5.97;;
15996;SDS011;8103;51.340;12.326;2023-02-28T16:31:56;8.55;;;5.95;;
15996;SDS011;8103;51.340;12.326;2023-02-28T16:34:23;11.60;;;6.20;;
15996;SDS011;8103;51.340;12.326;2023-02-28T16:36:52;9.13;;;6.88;;
15996;SDS011;8103;51.340;12.326;2023-02-28T16:39:19;10.65;;;6.05;;
15996;SDS011;8103;51.340;12.326;2023-02-28T16:41:46;16.77;;;9.25;;
15996;SDS011;8103;51.340;12.326;2023-02-28T16:44:29;12.20;;;7.30;;
15996;SDS011;8103;51.340;12.326;2023-02-28T16:47:02;12.40;;;7.55;;
15996;SDS011;8103;51.340;12.326;2023-02-28T16:49:30;9.48;;;6.78;;
15996;SDS011;8103;51.340;12.326;2023-02-28T16:51:57;9.55;;;6.13;;
15996;SDS011;8103;51.340;12.326;2023-02-28T16:54:25;13.60;;;7.32;;
15996;SDS011;8103;51.340;12.326;2023-02-28T16:56:52;11.15;;;7.40;;
15996;SDS011;8103;51.340;12.326;2023-02-28T16:59:21;10.38;;;7.05;;
15996;SDS011;8103;51.340;12.326;2023-02-28T17:01:51;11.13;;;6.70;;
15996;SDS011;8103;51.340;12.326;2023-02-28T17:04:22;13.88;;;7.47;;
15996;SDS011;8103;51.340;12.326;2023-02-28T17:06:49;12.40;;;7.53;;
15996;SDS011;8103;51.340;12.326;2023-02-28T17:09:18;10.48;;;7.13;;
15996;SDS011;8103;51.340;12.326;2023-02-28T17:11:55;8.18;;;7.32;;
15996;SDS011;8103;51.340;12.326;2023-02-28T17:14:22;11.85;;;7.95;;
15996;SDS011;8103;51.340;12.326;2023-02-28T17:16:49;10.68;;;7.22;;
15996;SDS011;8103;51.340;12.326;2023-02-28T17:19:17;15.60;;;8.63;;
15996;SDS011;8103;51.340;12.326;2023-02-28T17:21:45;11.50;;;7.22;;
15996;SDS011;8103;51.340;12.326;2023-02-28T17:24:15;11.10;;;8.43;;
15996;SDS011;8103;51.340;12.326;2023-02-28T17:26:55;11.68;;;8.18;;
15996;SDS011;8103;51.340;12.326;2023-02-28T17:29:21;10.13;;;8.30;;
15996;SDS011;8103;51.340;12.326;2023-02-28T17:31:50;12.15;;;7.05;;
15996;SDS011;8103;51.340;12.326;2023-02-28T17:34:18;17.27;;;12.32;;
15996;SDS011;8103;51.340;12.326;2023-02-28T17:36:45;15.93;;;8.65;;
15996;SDS011;8103;51.340;12.326;2023-02-28T17:39:19;14.75;;;9.45;;
15996;SDS011;8103;51.340;12.326;2023-02-28T17:41:51;12.85;;;8.73;;
15996;SDS011;8103;51.340;12.326;2023-02-28T17:44:20;11.40;;;8.50;;
15996;SDS011;8103;51.340;12.326;2023-02-28T17:46:50;12.05;;;7.50;;
15996;SDS011;8103;51.340;12.326;2023-02-28T17:49:18;15.98;;;8.65;;
15996;SDS011;8103;51.340;12.326;2023-02-28T17:51:46;13.27;;;8.73;;
15996;SDS011;8103;51.340;12.326;2023-02-28T17:54:13;13.88;;;8.88;;
15996;SDS011;8103;51.340;12.326;2023-02-28T17:56:44;14.90;;;7.75;;
15996;SDS011;8103;51.340;12.326;2023-02-28T17:59:12;14.05;;;8.02;;
15996;SDS011;8103;51.340;12.326;2023-02-28T18:01:39;13.90;;;10.20;;
15996;SDS011;8103;51.340;12.326;2023-02-28T18:04:06;13.15;;;9.75;;
15996;SDS011;8103;51.340;12.326;2023-02-28T18:06:37;17.35;;;10.10;;
15996;SDS011;8103;51.340;12.326;2023-02-28T18:09:17;13.45;;;9.30;;
15996;SDS011;8103;51.340;12.326;2023-02-28T18:11:49;16.10;;;9.00;;
15996;SDS011;8103;51.340;12.326;2023-02-28T18:14:21;10.70;;;8.10;;
15996;SDS011;8103;51.340;12.326;2023-02-28T18:16:52;11.65;;;8.10;;
15996;SDS011;8103;51.340;12.326;2023-02-28T18:19:21;9.18;;;7.32;;
15996;SDS011;8103;51.340;12.326;2023-02-28T18:21:51;9.82;;;7.65;;
15996;SDS011;8103;51.340;12.326;2023-02-28T18:24:20;10.15;;;7.47;;
15996;SDS011;8103;51.340;12.326;2023-02-28T18:26:49;8.98;;;6.68;;
15996;SDS011;8103;51.340;12.326;2023-02-28T18:29:18;12.13;;;7.47;;
15996;SDS011;8103;51.340;12.326;2023-02-28T18:31:52;11.90;;;8.05;;
15996;SDS011;8103;51.340;12.326;2023-02-28T18:34:22;9.88;;;7.13;;